sensor_id;sensor_type;location;lat;lon;timestamp;temperature;humidity
27376;DHT22;14844;51.302;6.354;2023-06-14T00:00:39;15.80;91.40
27376;DHT22;14844;51.302;6.354;2023-06-14T00:03:08;15.70;91.60
27376;DHT22;14844;51.302;6.354;2023-06-14T00:05:36;15.80;90.90
27376;DHT22;14844;51.302;6.354;2023-06-14T00:08:09;15.80;90.70
27376;DHT22;14844;51.302;6.354;2023-06-14T00:10:37;15.90;91.00
27376;DHT22;14844;51.302;6.354;2023-06-14T00:13:04;15.90;91.70
27376;DHT22;14844;51.302;6.354;2023-06-14T00:15:31;15.90;92.30
27376;DHT22;14844;51.302;6.354;2023-06-14T00:17:57;15.80;92.40
27376;DHT22;14844;51.302;6.354;2023-06-14T00:20:29;15.70;92.60
27376;DHT22;14844;51.302;6.354;2023-06-14T00:22:56;15.60;93.00
27376;DHT22;14844;51.302;6.354;2023-06-14T00:25:23;15.60;93.10
27376;DHT22;14844;51.302;6.354;2023-06-14T00:27:51;15.50;92.90
27376;DHT22;14844;51.302;6.354;2023-06-14T00:30:17;15.40;92.90
27376;DHT22;14844;51.302;6.354;2023-06-14T00:32:43;15.40;92.80
27376;DHT22;14844;51.302;6.354;2023-06-14T00:35:09;15.30;93.00
27376;DHT22;14844;51.302;6.354;2023-06-14T00:37:35;15.20;93.30
27376;DHT22;14844;51.302;6.354;2023-06-14T00:40:01;15.30;93.10
27376;DHT22;14844;51.302;6.354;2023-06-14T00:42:27;15.30;93.10
27376;DHT22;14844;51.302;6.354;2023-06-14T00:44:53;15.40;93.20
27376;DHT22;14844;51.302;6.354;2023-06-14T00:47:19;15.50;93.70
27376;DHT22;14844;51.302;6.354;2023-06-14T00:49:49;15.50;94.20
27376;DHT22;14844;51.302;6.354;2023-06-14T00:52:16;15.40;94.50
27376;DHT22;14844;51.302;6.354;2023-06-14T00:54:42;15.30;94.50
27376;DHT22;14844;51.302;6.354;2023-06-14T00:57:09;15.20;95.30
27376;DHT22;14844;51.302;6.354;2023-06-14T00:59:47;15.10;95.20
27376;DHT22;14844;51.302;6.354;2023-06-14T01:02:14;15.20;94.70
27376;DHT22;14844;51.302;6.354;2023-06-14T01:04:41;15.30;94.60
27376;DHT22;14844;51.302;6.354;2023-06-14T01:07:31;15.20;94.80
27376;DHT22;14844;51.302;6.354;2023-06-14T01:10:17;15.20;95.10
27376;DHT22;14844;51.302;6.354;2023-06-14T01:13:10;15.20;95.20
27376;DHT22;14844;51.302;6.354;2023-06-14T01:15:37;15.20;95.50
27376;DHT22;14844;51.302;6.354;2023-06-14T01:18:04;15.20;95.80
27376;DHT22;14844;51.302;6.354;2023-06-14T01:20:32;15.10;95.40
27376;DHT22;14844;51.302;6.354;2023-06-14T01:22:58;15.10;95.00
27376;DHT22;14844;51.302;6.354;2023-06-14T01:25:24;15.10;95.00
27376;DHT22;14844;51.302;6.354;2023-06-14T01:27:53;15.10;95.60
27376;DHT22;14844;51.302;6.354;2023-06-14T01:30:20;15.20;95.40
27376;DHT22;14844;51.302;6.354;2023-06-14T01:32:47;15.10;95.50
27376;DHT22;14844;51.302;6.354;2023-06-14T01:35:14;15.10;95.10
27376;DHT22;14844;51.302;6.354;2023-06-14T01:37:40;15.00;95.10
27376;DHT22;14844;51.302;6.354;2023-06-14T01:40:07;15.00;94.70
27376;DHT22;14844;51.302;6.354;2023-06-14T01:42:35;15.00;95.00
27376;DHT22;14844;51.302;6.354;2023-06-14T01:45:03;14.90;94.80
27376;DHT22;14844;51.302;6.354;2023-06-14T01:47:30;14.90;94.90
27376;DHT22;14844;51.302;6.354;2023-06-14T01:49:56;14.90;95.00
27376;DHT22;14844;51.302;6.354;2023-06-14T01:52:21;14.90;95.30
27376;DHT22;14844;51.302;6.354;2023-06-14T01:54:52;14.80;95.50
27376;DHT22;14844;51.302;6.354;2023-06-14T01:57:18;14.50;95.90
27376;DHT22;14844;51.302;6.354;2023-06-14T01:59:43;14.50;96.30
27376;DHT22;14844;51.302;6.354;2023-06-14T02:02:14;14.50;96.20
27376;DHT22;14844;51.302;6.354;2023-06-14T02:04:40;14.50;96.10
27376;DHT22;14844;51.302;6.354;2023-06-14T02:07:06;14.40;95.90
27376;DHT22;14844;51.302;6.354;2023-06-14T02:09:32;14.60;95.90
27376;DHT22;14844;51.302;6.354;2023-06-14T02:11:57;14.60;95.70
27376;DHT22;14844;51.302;6.354;2023-06-14T02:14:23;14.60;95.90
27376;DHT22;14844;51.302;6.354;2023-06-14T02:16:48;14.50;95.80
27376;DHT22;14844;51.302;6.354;2023-06-14T02:19:18;14.40;96.00
27376;DHT22;14844;51.302;6.354;2023-06-14T02:21:44;14.30;96.20
27376;DHT22;14844;51.302;6.354;2023-06-14T02:24:09;14.30;96.70
27376;DHT22;14844;51.302;6.354;2023-06-14T02:26:35;14.30;96.50
27376;DHT22;14844;51.302;6.354;2023-06-14T02:29:05;14.30;96.50
27376;DHT22;14844;51.302;6.354;2023-06-14T02:31:32;14.30;96.40
27376;DHT22;14844;51.302;6.354;2023-06-14T02:33:58;14.30;96.50
27376;DHT22;14844;51.302;6.354;2023-06-14T02:36:23;14.30;96.50
27376;DHT22;14844;51.302;6.354;2023-06-14T02:38:50;14.20;96.60
27376;DHT22;14844;51.302;6.354;2023-06-14T02:41:15;14.20;97.00
27376;DHT22;14844;51.302;6.354;2023-06-14T02:43:41;14.10;97.50
27376;DHT22;14844;51.302;6.354;2023-06-14T02:46:07;14.00;98.20
27376;DHT22;14844;51.302;6.354;2023-06-14T02:48:32;14.00;98.50
27376;DHT22;14844;51.302;6.354;2023-06-14T02:50:58;14.00;98.70
27376;DHT22;14844;51.302;6.354;2023-06-14T02:53:24;14.00;98.80
27376;DHT22;14844;51.302;6.354;2023-06-14T02:55:49;13.90;99.10
27376;DHT22;14844;51.302;6.354;2023-06-14T02:58:15;13.90;99.40
27376;DHT22;14844;51.302;6.354;2023-06-14T03:00:41;13.90;99.30
27376;DHT22;14844;51.302;6.354;2023-06-14T03:03:08;13.80;99.80
27376;DHT22;14844;51.302;6.354;2023-06-14T03:05:43;13.70;99.90
27376;DHT22;14844;51.302;6.354;2023-06-14T03:08:11;13.70;99.90
27376;DHT22;14844;51.302;6.354;2023-06-14T03:10:43;13.50;99.90
27376;DHT22;14844;51.302;6.354;2023-06-14T03:13:08;13.40;99.90
27376;DHT22;14844;51.302;6.354;2023-06-14T03:15:36;13.40;99.90
27376;DHT22;14844;51.302;6.354;2023-06-14T03:18:01;13.30;99.90
27376;DHT22;14844;51.302;6.354;2023-06-14T03:20:29;13.20;99.90
27376;DHT22;14844;51.302;6.354;2023-06-14T03:23:00;13.20;99.90
27376;DHT22;14844;51.302;6.354;2023-06-14T03:25:26;13.10;99.90
27376;DHT22;14844;51.302;6.354;2023-06-14T03:27:55;13.00;99.90
27376;DHT22;14844;51.302;6.354;2023-06-14T03:30:20;12.90;99.90
27376;DHT22;14844;51.302;6.354;2023-06-14T03:32:46;12.90;99.90
27376;DHT22;14844;51.302;6.354;2023-06-14T03:35:11;12.90;99.90
27376;DHT22;14844;51.302;6.354;2023-06-14T03:37:43;12.90;99.90
27376;DHT22;14844;51.302;6.354;2023-06-14T03:40:08;12.90;99.90
27376;DHT22;14844;51.302;6.354;2023-06-14T03:42:34;13.00;99.90
27376;DHT22;14844;51.302;6.354;2023-06-14T03:45:00;13.10;99.90
27376;DHT22;14844;51.302;6.354;2023-06-14T03:47:25;13.30;99.90
27376;DHT22;14844;51.302;6.354;2023-06-14T03:49:52;13.40;99.90
27376;DHT22;14844;51.302;6.354;2023-06-14T03:52:18;13.40;99.90
27376;DHT22;14844;51.302;6.354;2023-06-14T03:54:43;13.40;99.90
27376;DHT22;14844;51.302;6.354;2023-06-14T03:57:10;13.50;99.90
27376;DHT22;14844;51.302;6.354;2023-06-14T03:59:35;13.60;99.90
27376;DHT22;14844;51.302;6.354;2023-06-14T04:02:02;14.00;99.90
27376;DHT22;14844;51.302;6.354;2023-06-14T04:04:28;14.60;99.90
27376;DHT22;14844;51.302;6.354;2023-06-14T04:06:55;15.20;99.90
27376;DHT22;14844;51.302;6.354;2023-06-14T04:09:23;15.80;99.40
27376;DHT22;14844;51.302;6.354;2023-06-14T04:11:51;16.30;97.30
27376;DHT22;14844;51.302;6.354;2023-06-14T04:14:18;16.80;95.60
27376;DHT22;14844;51.302;6.354;2023-06-14T04:16:44;17.20;94.70
27376;DHT22;14844;51.302;6.354;2023-06-14T04:19:10;17.60;93.70
27376;DHT22;14844;51.302;6.354;2023-06-14T04:21:36;18.00;92.70
27376;DHT22;14844;51.302;6.354;2023-06-14T04:24:02;18.10;92.90
27376;DHT22;14844;51.302;6.354;2023-06-14T04:26:27;18.00;93.50
27376;DHT22;14844;51.302;6.354;2023-06-14T04:28:55;17.70;94.10
27376;DHT22;14844;51.302;6.354;2023-06-14T04:31:22;17.30;94.30
27376;DHT22;14844;51.302;6.354;2023-06-14T04:33:50;17.00;95.00
27376;DHT22;14844;51.302;6.354;2023-06-14T04:36:24;16.60;96.10
27376;DHT22;14844;51.302;6.354;2023-06-14T04:39:17;16.40;94.60
27376;DHT22;14844;51.302;6.354;2023-06-14T04:41:43;16.20;96.90
27376;DHT22;14844;51.302;6.354;2023-06-14T04:44:09;16.10;97.20
27376;DHT22;14844;51.302;6.354;2023-06-14T04:46:36;16.10;97.50
27376;DHT22;14844;51.302;6.354;2023-06-14T04:49:17;16.00;96.10
27376;DHT22;14844;51.302;6.354;2023-06-14T04:51:44;16.10;95.30
27376;DHT22;14844;51.302;6.354;2023-06-14T04:54:10;16.10;94.80
27376;DHT22;14844;51.302;6.354;2023-06-14T04:56:38;16.20;94.80
27376;DHT22;14844;51.302;6.354;2023-06-14T04:59:03;16.40;94.00
27376;DHT22;14844;51.302;6.354;2023-06-14T05:01:32;16.40;92.90
27376;DHT22;14844;51.302;6.354;2023-06-14T05:03:59;16.60;92.60
27376;DHT22;14844;51.302;6.354;2023-06-14T05:06:24;16.70;92.20
27376;DHT22;14844;51.302;6.354;2023-06-14T05:08:51;16.80;91.90
27376;DHT22;14844;51.302;6.354;2023-06-14T05:11:17;16.90;91.40
27376;DHT22;14844;51.302;6.354;2023-06-14T05:13:42;17.10;91.20
27376;DHT22;14844;51.302;6.354;2023-06-14T05:16:10;17.20;91.00
27376;DHT22;14844;51.302;6.354;2023-06-14T05:18:36;17.30;90.80
27376;DHT22;14844;51.302;6.354;2023-06-14T05:21:02;17.40;90.50
27376;DHT22;14844;51.302;6.354;2023-06-14T05:23:30;17.50;90.30
27376;DHT22;14844;51.302;6.354;2023-06-14T05:25:55;17.60;90.00
27376;DHT22;14844;51.302;6.354;2023-06-14T05:28:22;17.70;89.30
27376;DHT22;14844;51.302;6.354;2023-06-14T05:30:48;17.80;89.30
27376;DHT22;14844;51.302;6.354;2023-06-14T05:33:13;17.90;89.00
27376;DHT22;14844;51.302;6.354;2023-06-14T05:35:39;18.00;88.80
27376;DHT22;14844;51.302;6.354;2023-06-14T05:38:04;18.10;87.80
27376;DHT22;14844;51.302;6.354;2023-06-14T05:40:31;18.10;87.20
27376;DHT22;14844;51.302;6.354;2023-06-14T05:42:56;18.30;86.80
27376;DHT22;14844;51.302;6.354;2023-06-14T05:45:22;18.40;86.40
27376;DHT22;14844;51.302;6.354;2023-06-14T05:47:48;18.50;86.60
27376;DHT22;14844;51.302;6.354;2023-06-14T05:50:13;18.60;86.70
27376;DHT22;14844;51.302;6.354;2023-06-14T05:52:39;18.80;85.60
27376;DHT22;14844;51.302;6.354;2023-06-14T05:55:05;18.90;85.60
27376;DHT22;14844;51.302;6.354;2023-06-14T05:57:31;19.00;84.90
27376;DHT22;14844;51.302;6.354;2023-06-14T05:59:57;19.20;84.00
27376;DHT22;14844;51.302;6.354;2023-06-14T06:02:22;19.30;84.20
27376;DHT22;14844;51.302;6.354;2023-06-14T06:04:49;19.40;83.50
27376;DHT22;14844;51.302;6.354;2023-06-14T06:07:15;19.50;82.40
27376;DHT22;14844;51.302;6.354;2023-06-14T06:09:40;19.70;81.80
27376;DHT22;14844;51.302;6.354;2023-06-14T06:12:07;19.80;82.00
27376;DHT22;14844;51.302;6.354;2023-06-14T06:14:32;20.00;81.00
27376;DHT22;14844;51.302;6.354;2023-06-14T06:16:58;20.10;81.20
27376;DHT22;14844;51.302;6.354;2023-06-14T06:19:24;20.30;80.00
27376;DHT22;14844;51.302;6.354;2023-06-14T06:21:50;20.30;79.00
27376;DHT22;14844;51.302;6.354;2023-06-14T06:24:15;20.50;78.40
27376;DHT22;14844;51.302;6.354;2023-06-14T06:26:41;20.70;76.10
27376;DHT22;14844;51.302;6.354;2023-06-14T06:29:07;20.90;75.90
27376;DHT22;14844;51.302;6.354;2023-06-14T06:31:32;21.00;73.80
27376;DHT22;14844;51.302;6.354;2023-06-14T06:33:58;21.10;72.90
27376;DHT22;14844;51.302;6.354;2023-06-14T06:36:24;21.30;72.00
27376;DHT22;14844;51.302;6.354;2023-06-14T06:38:50;21.40;71.10
27376;DHT22;14844;51.302;6.354;2023-06-14T06:41:16;21.50;69.60
27376;DHT22;14844;51.302;6.354;2023-06-14T06:43:41;21.70;69.30
27376;DHT22;14844;51.302;6.354;2023-06-14T06:46:07;21.70;69.80
27376;DHT22;14844;51.302;6.354;2023-06-14T06:48:32;21.80;69.20
27376;DHT22;14844;51.302;6.354;2023-06-14T06:50:58;21.90;68.00
27376;DHT22;14844;51.302;6.354;2023-06-14T06:53:24;22.00;66.70
27376;DHT22;14844;51.302;6.354;2023-06-14T06:55:49;22.00;66.00
27376;DHT22;14844;51.302;6.354;2023-06-14T06:58:15;22.10;65.60
27376;DHT22;14844;51.302;6.354;2023-06-14T07:00:41;22.20;66.30
27376;DHT22;14844;51.302;6.354;2023-06-14T07:03:06;22.30;64.60
27376;DHT22;14844;51.302;6.354;2023-06-14T07:05:32;22.30;64.30
27376;DHT22;14844;51.302;6.354;2023-06-14T07:07:58;22.40;63.60
27376;DHT22;14844;51.302;6.354;2023-06-14T07:10:23;22.60;62.50
27376;DHT22;14844;51.302;6.354;2023-06-14T07:12:50;22.40;62.00
27376;DHT22;14844;51.302;6.354;2023-06-14T07:15:15;22.50;62.60
27376;DHT22;14844;51.302;6.354;2023-06-14T07:17:41;22.50;62.00
27376;DHT22;14844;51.302;6.354;2023-06-14T07:20:08;22.70;63.20
27376;DHT22;14844;51.302;6.354;2023-06-14T07:22:42;22.80;62.40
27376;DHT22;14844;51.302;6.354;2023-06-14T07:25:09;22.90;60.90
27376;DHT22;14844;51.302;6.354;2023-06-14T07:27:37;23.00;59.00
27376;DHT22;14844;51.302;6.354;2023-06-14T07:30:03;22.90;58.50
27376;DHT22;14844;51.302;6.354;2023-06-14T07:32:29;22.90;58.40
27376;DHT22;14844;51.302;6.354;2023-06-14T07:34:55;22.90;57.10
27376;DHT22;14844;51.302;6.354;2023-06-14T07:37:20;23.00;54.90
27376;DHT22;14844;51.302;6.354;2023-06-14T07:39:46;23.00;55.10
27376;DHT22;14844;51.302;6.354;2023-06-14T07:42:11;23.00;55.70
27376;DHT22;14844;51.302;6.354;2023-06-14T07:44:37;23.10;55.30
27376;DHT22;14844;51.302;6.354;2023-06-14T07:47:02;23.30;55.70
27376;DHT22;14844;51.302;6.354;2023-06-14T07:49:28;23.50;56.60
27376;DHT22;14844;51.302;6.354;2023-06-14T07:51:53;23.70;54.40
27376;DHT22;14844;51.302;6.354;2023-06-14T07:54:20;23.60;54.20
27376;DHT22;14844;51.302;6.354;2023-06-14T07:56:50;23.60;53.60
27376;DHT22;14844;51.302;6.354;2023-06-14T07:59:16;23.50;52.80
27376;DHT22;14844;51.302;6.354;2023-06-14T08:01:41;23.40;53.80
27376;DHT22;14844;51.302;6.354;2023-06-14T08:04:12;23.60;53.10
27376;DHT22;14844;51.302;6.354;2023-06-14T08:06:38;23.50;51.40
27376;DHT22;14844;51.302;6.354;2023-06-14T08:09:04;23.50;52.00
27376;DHT22;14844;51.302;6.354;2023-06-14T08:11:31;23.40;51.10
27376;DHT22;14844;51.302;6.354;2023-06-14T08:13:56;23.50;51.80
27376;DHT22;14844;51.302;6.354;2023-06-14T08:16:22;23.50;51.70
27376;DHT22;14844;51.302;6.354;2023-06-14T08:18:48;23.50;52.50
27376;DHT22;14844;51.302;6.354;2023-06-14T08:21:14;23.50;50.50
27376;DHT22;14844;51.302;6.354;2023-06-14T08:23:43;23.70;51.10
27376;DHT22;14844;51.302;6.354;2023-06-14T08:26:09;23.60;49.80
27376;DHT22;14844;51.302;6.354;2023-06-14T08:28:35;23.60;51.40
27376;DHT22;14844;51.302;6.354;2023-06-14T08:31:01;23.70;51.50
27376;DHT22;14844;51.302;6.354;2023-06-14T08:33:27;23.80;50.60
27376;DHT22;14844;51.302;6.354;2023-06-14T08:35:52;23.90;49.30
27376;DHT22;14844;51.302;6.354;2023-06-14T08:38:18;24.00;49.00
27376;DHT22;14844;51.302;6.354;2023-06-14T08:40:48;24.10;49.10
27376;DHT22;14844;51.302;6.354;2023-06-14T08:43:15;24.10;48.70
27376;DHT22;14844;51.302;6.354;2023-06-14T08:45:41;24.10;47.20
27376;DHT22;14844;51.302;6.354;2023-06-14T08:48:07;24.30;49.20
27376;DHT22;14844;51.302;6.354;2023-06-14T08:50:34;24.30;49.30
27376;DHT22;14844;51.302;6.354;2023-06-14T08:53:02;24.20;49.40
27376;DHT22;14844;51.302;6.354;2023-06-14T08:55:29;24.30;49.50
27376;DHT22;14844;51.302;6.354;2023-06-14T08:57:56;24.30;48.20
27376;DHT22;14844;51.302;6.354;2023-06-14T09:00:27;24.20;47.80
27376;DHT22;14844;51.302;6.354;2023-06-14T09:02:53;24.10;48.00
27376;DHT22;14844;51.302;6.354;2023-06-14T09:05:26;24.10;49.80
27376;DHT22;14844;51.302;6.354;2023-06-14T09:07:52;24.20;49.00
27376;DHT22;14844;51.302;6.354;2023-06-14T09:10:18;24.30;49.70
27376;DHT22;14844;51.302;6.354;2023-06-14T09:12:44;24.30;48.50
27376;DHT22;14844;51.302;6.354;2023-06-14T09:15:10;24.30;48.50
27376;DHT22;14844;51.302;6.354;2023-06-14T09:17:36;24.30;48.30
27376;DHT22;14844;51.302;6.354;2023-06-14T09:20:06;24.20;49.00
27376;DHT22;14844;51.302;6.354;2023-06-14T09:22:34;24.20;49.90
27376;DHT22;14844;51.302;6.354;2023-06-14T09:25:00;24.30;49.50
27376;DHT22;14844;51.302;6.354;2023-06-14T09:27:27;24.50;49.30
27376;DHT22;14844;51.302;6.354;2023-06-14T09:29:53;24.70;49.80
27376;DHT22;14844;51.302;6.354;2023-06-14T09:32:18;24.50;47.60
27376;DHT22;14844;51.302;6.354;2023-06-14T09:34:45;24.30;48.90
27376;DHT22;14844;51.302;6.354;2023-06-14T09:37:11;24.30;50.20
27376;DHT22;14844;51.302;6.354;2023-06-14T09:39:50;24.40;48.60
27376;DHT22;14844;51.302;6.354;2023-06-14T09:42:19;24.30;49.60
27376;DHT22;14844;51.302;6.354;2023-06-14T09:44:47;24.30;50.20
27376;DHT22;14844;51.302;6.354;2023-06-14T09:47:14;24.20;50.30
27376;DHT22;14844;51.302;6.354;2023-06-14T09:49:40;24.10;50.60
27376;DHT22;14844;51.302;6.354;2023-06-14T09:52:07;24.00;51.40
27376;DHT22;14844;51.302;6.354;2023-06-14T09:54:41;24.20;52.50
27376;DHT22;14844;51.302;6.354;2023-06-14T09:57:12;24.30;52.00
27376;DHT22;14844;51.302;6.354;2023-06-14T09:59:42;24.40;51.40
27376;DHT22;14844;51.302;6.354;2023-06-14T10:02:12;24.80;51.90
27376;DHT22;14844;51.302;6.354;2023-06-14T10:04:45;24.90;51.60
27376;DHT22;14844;51.302;6.354;2023-06-14T10:07:20;24.80;52.40
27376;DHT22;14844;51.302;6.354;2023-06-14T10:09:47;24.80;51.60
27376;DHT22;14844;51.302;6.354;2023-06-14T10:12:17;24.60;53.20
27376;DHT22;14844;51.302;6.354;2023-06-14T10:14:49;24.50;52.50
27376;DHT22;14844;51.302;6.354;2023-06-14T10:17:22;24.60;53.50
27376;DHT22;14844;51.302;6.354;2023-06-14T10:19:54;24.70;53.00
27376;DHT22;14844;51.302;6.354;2023-06-14T10:22:33;25.00;53.90
27376;DHT22;14844;51.302;6.354;2023-06-14T10:25:02;24.70;53.00
27376;DHT22;14844;51.302;6.354;2023-06-14T10:27:27;24.20;52.50
27376;DHT22;14844;51.302;6.354;2023-06-14T10:32:20;24.20;53.50
27376;DHT22;14844;51.302;6.354;2023-06-14T10:34:49;24.00;53.20
27376;DHT22;14844;51.302;6.354;2023-06-14T10:37:18;23.90;52.60
27376;DHT22;14844;51.302;6.354;2023-06-14T10:39:45;24.00;53.40
27376;DHT22;14844;51.302;6.354;2023-06-14T10:42:14;24.00;52.70
27376;DHT22;14844;51.302;6.354;2023-06-14T10:45:06;24.30;52.70
27376;DHT22;14844;51.302;6.354;2023-06-14T10:47:33;24.60;52.00
27376;DHT22;14844;51.302;6.354;2023-06-14T10:50:08;24.50;50.50
27376;DHT22;14844;51.302;6.354;2023-06-14T10:52:37;24.40;49.30
27376;DHT22;14844;51.302;6.354;2023-06-14T10:57:37;24.50;49.70
27376;DHT22;14844;51.302;6.354;2023-06-14T11:00:05;24.60;49.10
27376;DHT22;14844;51.302;6.354;2023-06-14T11:05:30;24.70;50.00
27376;DHT22;14844;51.302;6.354;2023-06-14T11:10:38;24.40;50.30
27376;DHT22;14844;51.302;6.354;2023-06-14T11:13:06;24.30;50.30
27376;DHT22;14844;51.302;6.354;2023-06-14T11:15:32;24.30;51.70
27376;DHT22;14844;51.302;6.354;2023-06-14T11:18:02;24.20;51.20
27376;DHT22;14844;51.302;6.354;2023-06-14T11:20:31;24.40;50.70
27376;DHT22;14844;51.302;6.354;2023-06-14T11:22:57;24.40;49.50
27376;DHT22;14844;51.302;6.354;2023-06-14T11:25:22;24.40;49.80
27376;DHT22;14844;51.302;6.354;2023-06-14T11:27:52;24.50;50.70
27376;DHT22;14844;51.302;6.354;2023-06-14T11:30:18;24.60;50.40
27376;DHT22;14844;51.302;6.354;2023-06-14T11:32:48;24.80;51.50
27376;DHT22;14844;51.302;6.354;2023-06-14T11:35:13;24.80;50.00
27376;DHT22;14844;51.302;6.354;2023-06-14T11:37:39;24.90;51.00
27376;DHT22;14844;51.302;6.354;2023-06-14T11:40:08;24.80;48.70
27376;DHT22;14844;51.302;6.354;2023-06-14T11:42:35;25.10;50.30
27376;DHT22;14844;51.302;6.354;2023-06-14T11:45:01;25.10;49.10
27376;DHT22;14844;51.302;6.354;2023-06-14T11:47:35;25.30;49.90
27376;DHT22;14844;51.302;6.354;2023-06-14T11:50:04;25.10;49.90
27376;DHT22;14844;51.302;6.354;2023-06-14T11:52:31;24.80;50.40
27376;DHT22;14844;51.302;6.354;2023-06-14T11:54:57;24.80;50.90
27376;DHT22;14844;51.302;6.354;2023-06-14T11:57:24;24.80;49.30
27376;DHT22;14844;51.302;6.354;2023-06-14T11:59:49;25.00;49.60
27376;DHT22;14844;51.302;6.354;2023-06-14T12:02:16;25.10;48.00
27376;DHT22;14844;51.302;6.354;2023-06-14T12:04:42;24.80;47.80
27376;DHT22;14844;51.302;6.354;2023-06-14T12:07:12;24.50;48.70
27376;DHT22;14844;51.302;6.354;2023-06-14T12:12:25;24.50;49.50
27376;DHT22;14844;51.302;6.354;2023-06-14T12:14:51;24.50;49.70
27376;DHT22;14844;51.302;6.354;2023-06-14T12:17:18;24.50;49.60
27376;DHT22;14844;51.302;6.354;2023-06-14T12:19:44;24.70;50.30
27376;DHT22;14844;51.302;6.354;2023-06-14T12:22:11;24.70;49.30
27376;DHT22;14844;51.302;6.354;2023-06-14T12:24:37;24.80;49.20
27376;DHT22;14844;51.302;6.354;2023-06-14T12:27:03;24.90;50.90
27376;DHT22;14844;51.302;6.354;2023-06-14T12:29:33;25.00;48.50
27376;DHT22;14844;51.302;6.354;2023-06-14T12:31:59;25.20;49.60
27376;DHT22;14844;51.302;6.354;2023-06-14T12:34:24;25.30;50.60
27376;DHT22;14844;51.302;6.354;2023-06-14T12:36:50;25.30;50.10
27376;DHT22;14844;51.302;6.354;2023-06-14T12:39:16;25.20;49.40
27376;DHT22;14844;51.302;6.354;2023-06-14T12:41:42;25.10;47.90
27376;DHT22;14844;51.302;6.354;2023-06-14T12:44:08;25.10;47.80
27376;DHT22;14844;51.302;6.354;2023-06-14T12:46:34;25.40;48.80
27376;DHT22;14844;51.302;6.354;2023-06-14T12:49:05;25.60;48.40
27376;DHT22;14844;51.302;6.354;2023-06-14T12:51:30;25.80;47.80
27376;DHT22;14844;51.302;6.354;2023-06-14T12:53:56;25.80;49.40
27376;DHT22;14844;51.302;6.354;2023-06-14T12:56:22;25.70;49.50
27376;DHT22;14844;51.302;6.354;2023-06-14T12:58:47;25.50;49.20
27376;DHT22;14844;51.302;6.354;2023-06-14T13:01:13;25.30;49.30
27376;DHT22;14844;51.302;6.354;2023-06-14T13:03:38;25.40;50.30
27376;DHT22;14844;51.302;6.354;2023-06-14T13:06:04;25.40;48.90
27376;DHT22;14844;51.302;6.354;2023-06-14T13:08:30;25.30;49.40
27376;DHT22;14844;51.302;6.354;2023-06-14T13:10:56;25.30;50.30
27376;DHT22;14844;51.302;6.354;2023-06-14T13:13:24;25.40;50.70
27376;DHT22;14844;51.302;6.354;2023-06-14T13:15:55;25.40;50.70
27376;DHT22;14844;51.302;6.354;2023-06-14T13:18:21;25.40;50.50
27376;DHT22;14844;51.302;6.354;2023-06-14T13:20:47;25.20;50.40
27376;DHT22;14844;51.302;6.354;2023-06-14T13:23:13;25.20;49.70
27376;DHT22;14844;51.302;6.354;2023-06-14T13:25:39;25.10;50.10
27376;DHT22;14844;51.302;6.354;2023-06-14T13:28:05;25.20;51.00
27376;DHT22;14844;51.302;6.354;2023-06-14T13:30:32;25.40;50.40
27376;DHT22;14844;51.302;6.354;2023-06-14T13:32:58;25.30;50.40
27376;DHT22;14844;51.302;6.354;2023-06-14T13:35:23;25.40;50.70
27376;DHT22;14844;51.302;6.354;2023-06-14T13:37:49;25.60;51.00
27376;DHT22;14844;51.302;6.354;2023-06-14T13:40:15;25.40;50.90
27376;DHT22;14844;51.302;6.354;2023-06-14T13:42:41;25.20;51.20
27376;DHT22;14844;51.302;6.354;2023-06-14T13:45:07;25.10;52.00
27376;DHT22;14844;51.302;6.354;2023-06-14T13:47:33;25.30;51.30
27376;DHT22;14844;51.302;6.354;2023-06-14T13:49:58;25.30;49.80
27376;DHT22;14844;51.302;6.354;2023-06-14T13:52:24;25.30;50.10
27376;DHT22;14844;51.302;6.354;2023-06-14T13:54:50;25.40;50.40
27376;DHT22;14844;51.302;6.354;2023-06-14T13:57:17;25.40;51.00
27376;DHT22;14844;51.302;6.354;2023-06-14T13:59:43;25.20;50.70
27376;DHT22;14844;51.302;6.354;2023-06-14T14:02:12;25.10;50.80
27376;DHT22;14844;51.302;6.354;2023-06-14T14:04:38;25.20;50.80
27376;DHT22;14844;51.302;6.354;2023-06-14T14:07:05;25.10;51.40
27376;DHT22;14844;51.302;6.354;2023-06-14T14:09:35;25.20;51.70
27376;DHT22;14844;51.302;6.354;2023-06-14T14:12:01;25.30;52.00
27376;DHT22;14844;51.302;6.354;2023-06-14T14:14:28;25.40;51.80
27376;DHT22;14844;51.302;6.354;2023-06-14T14:16:54;25.50;50.70
27376;DHT22;14844;51.302;6.354;2023-06-14T14:19:20;26.00;50.60
27376;DHT22;14844;51.302;6.354;2023-06-14T14:21:46;26.40;51.30
27376;DHT22;14844;51.302;6.354;2023-06-14T14:24:12;27.00;48.90
27376;DHT22;14844;51.302;6.354;2023-06-14T14:26:37;27.60;48.00
27376;DHT22;14844;51.302;6.354;2023-06-14T14:29:03;28.50;46.70
27376;DHT22;14844;51.302;6.354;2023-06-14T14:31:29;29.60;46.00
27376;DHT22;14844;51.302;6.354;2023-06-14T14:33:54;29.60;45.00
27376;DHT22;14844;51.302;6.354;2023-06-14T14:36:20;29.70;44.70
27376;DHT22;14844;51.302;6.354;2023-06-14T14:38:45;30.30;43.40
27376;DHT22;14844;51.302;6.354;2023-06-14T14:41:12;30.50;44.20
27376;DHT22;14844;51.302;6.354;2023-06-14T14:43:38;30.50;43.50
27376;DHT22;14844;51.302;6.354;2023-06-14T14:46:04;30.20;43.50
27376;DHT22;14844;51.302;6.354;2023-06-14T14:48:29;30.30;43.60
27376;DHT22;14844;51.302;6.354;2023-06-14T14:50:55;30.80;43.30
27376;DHT22;14844;51.302;6.354;2023-06-14T14:53:20;31.50;43.50
27376;DHT22;14844;51.302;6.354;2023-06-14T14:55:46;31.40;41.50
27376;DHT22;14844;51.302;6.354;2023-06-14T14:58:12;31.70;41.50
27376;DHT22;14844;51.302;6.354;2023-06-14T15:00:38;31.80;41.70
27376;DHT22;14844;51.302;6.354;2023-06-14T15:03:03;31.80;41.00
27376;DHT22;14844;51.302;6.354;2023-06-14T15:05:29;32.00;39.90
27376;DHT22;14844;51.302;6.354;2023-06-14T15:07:54;32.70;40.40
27376;DHT22;14844;51.302;6.354;2023-06-14T15:10:20;32.90;39.10
27376;DHT22;14844;51.302;6.354;2023-06-14T15:12:46;32.50;40.00
27376;DHT22;14844;51.302;6.354;2023-06-14T15:15:11;31.90;40.60
27376;DHT22;14844;51.302;6.354;2023-06-14T15:17:37;32.20;39.70
27376;DHT22;14844;51.302;6.354;2023-06-14T15:20:02;32.70;39.70
27376;DHT22;14844;51.302;6.354;2023-06-14T15:22:28;33.00;39.40
27376;DHT22;14844;51.302;6.354;2023-06-14T15:24:54;33.70;37.80
27376;DHT22;14844;51.302;6.354;2023-06-14T15:27:19;33.60;37.80
27376;DHT22;14844;51.302;6.354;2023-06-14T15:29:45;33.40;38.40
27376;DHT22;14844;51.302;6.354;2023-06-14T15:32:11;34.10;38.40
27376;DHT22;14844;51.302;6.354;2023-06-14T15:34:37;34.20;37.20
27376;DHT22;14844;51.302;6.354;2023-06-14T15:37:07;33.80;36.70
27376;DHT22;14844;51.302;6.354;2023-06-14T15:39:33;33.80;36.90
27376;DHT22;14844;51.302;6.354;2023-06-14T15:41:59;34.20;36.40